createdAt,value
2024-04-01T00:01:29.999Z,15.50
2024-04-01T00:04:19.034Z,16.40
2024-04-01T00:07:07.354Z,16.00
2024-04-01T00:10:31.818Z,15.90
2024-04-01T00:13:41.556Z,16.40
2024-04-01T00:16:42.828Z,15.00
2024-04-01T00:19:59.389Z,14.70
2024-04-01T00:23:04.017Z,14.70
2024-04-01T00:26:17.558Z,17.40
2024-04-01T00:29:25.371Z,15.20
2024-04-01T00:32:51.202Z,15.10
2024-04-01T00:35:40.681Z,15.50
2024-04-01T00:38:40.267Z,15.80
2024-04-01T00:41:24.327Z,13.80
2024-04-01T00:44:56.488Z,15.10
2024-04-01T00:48:13.575Z,14.50
2024-04-01T00:51:20.186Z,13.20
2024-04-01T00:54:35.953Z,14.10
2024-04-01T00:57:38.383Z,14.10
2024-04-01T01:00:26.948Z,14.20
2024-04-01T01:03:22.961Z,14.20
2024-04-01T01:06:38.480Z,13.80
2024-04-01T01:09:43.812Z,15.10
2024-04-01T01:12:50.906Z,15.60
2024-04-01T01:15:53.689Z,15.10
2024-04-01T01:18:39.547Z,14.70
2024-04-01T01:21:36.130Z,18.10
2024-04-01T01:24:31.792Z,17.20
2024-04-01T01:27:14.976Z,16.00
2024-04-01T01:30:13.637Z,15.50
2024-04-01T01:33:26.786Z,18.00
2024-04-01T01:37:03.318Z,16.70
2024-04-01T01:40:18.432Z,16.80
2024-04-01T01:43:35.337Z,16.20
2024-04-01T01:46:40.672Z,17.10
2024-04-01T01:49:48.747Z,14.30
2024-04-01T01:53:02.727Z,14.60
2024-04-01T01:56:15.205Z,15.60
2024-04-01T01:59:03.740Z,15.80
2024-04-01T02:01:52.486Z,15.10
2024-04-01T02:05:00.373Z,17.00
2024-04-01T02:08:13.651Z,15.60
2024-04-01T02:11:13.668Z,15.30
2024-04-01T02:14:02.648Z,16.70
2024-04-01T02:17:02.606Z,17.00
2024-04-01T02:20:16.047Z,17.10
2024-04-01T02:23:10.417Z,17.80
2024-04-01T02:26:24.764Z,16.30
2024-04-01T02:29:27.057Z,16.30
2024-04-01T02:32:26.311Z,15.30
2024-04-01T02:35:09.559Z,15.10
2024-04-01T02:38:04.402Z,16.40
2024-04-01T02:41:29.478Z,15.40
2024-04-01T02:44:34.654Z,14.10
2024-04-01T02:47:23.000Z,15.00
2024-04-01T02:50:11.898Z,15.70
2024-04-01T02:53:36.315Z,14.30
2024-04-01T02:56:50.821Z,14.60
2024-04-01T02:59:59.928Z,13.60
2024-04-01T03:02:57.202Z,14.50
2024-04-01T03:06:21.612Z,14.20
2024-04-01T03:09:59.647Z,11.40
2024-04-01T03:12:58.771Z,13.50
2024-04-01T03:15:58.377Z,11.10
2024-04-01T03:19:19.718Z,11.90
2024-04-01T03:23:03.262Z,11.80
2024-04-01T03:29:51.887Z,10.70
2024-04-01T03:33:08.049Z,12.90
2024-04-01T03:36:25.597Z,13.00
2024-04-01T03:39:29.456Z,12.70
2024-04-01T03:42:41.446Z,13.50
2024-04-01T03:46:18.399Z,12.70
2024-04-01T03:49:06.599Z,12.30
2024-04-01T03:52:09.091Z,14.00
2024-04-01T03:55:48.502Z,13.20
2024-04-01T03:59:05.144Z,13.10
2024-04-01T04:02:07.737Z,11.00
2024-04-01T04:05:10.757Z,12.80
2024-04-01T04:08:25.248Z,14.30
2024-04-01T04:11:16.699Z,14.90
2024-04-01T04:15:13.116Z,10.40
2024-04-01T04:18:26.208Z,12.40
2024-04-01T04:21:42.939Z,10.40
2024-04-01T04:24:51.874Z,12.10
2024-04-01T04:28:08.136Z,12.60
2024-04-01T04:31:32.261Z,11.70
2024-04-01T04:34:28.304Z,12.20
2024-04-01T04:37:40.326Z,13.00
2024-04-01T04:40:28.442Z,14.50
2024-04-01T04:43:19.892Z,11.70
2024-04-01T04:46:32.137Z,10.90
2024-04-01T04:49:20.636Z,12.30
2024-04-01T04:52:39.524Z,12.20
2024-04-01T04:55:54.266Z,12.50
2024-04-01T04:59:00.334Z,13.70
2024-04-01T05:01:48.703Z,14.60
2024-04-01T05:04:35.452Z,13.20
2024-04-01T05:07:50.254Z,13.50
2024-04-01T05:11:08.303Z,13.40
2024-04-01T05:14:31.610Z,15.00
2024-04-01T05:17:25.900Z,14.40
2024-04-01T05:20:32.551Z,17.90
2024-04-01T05:24:06.179Z,13.70
2024-04-01T05:27:40.774Z,15.50
2024-04-01T05:30:51.963Z,15.60
2024-04-01T05:33:44.041Z,15.80
2024-04-01T05:36:52.114Z,15.30
2024-04-01T05:39:55.585Z,14.40
2024-04-01T05:43:11.171Z,14.90
2024-04-01T05:46:14.371Z,14.20
2024-04-01T05:49:00.050Z,14.50
2024-04-01T05:52:04.753Z,13.60
2024-04-01T05:55:41.418Z,12.70
2024-04-01T05:58:43.749Z,11.70
2024-04-01T06:01:41.081Z,13.50
2024-04-01T06:04:55.491Z,11.20
2024-04-01T06:07:50.136Z,11.10
2024-04-01T06:10:45.166Z,11.80
2024-04-01T06:13:59.380Z,10.30
2024-04-01T06:16:57.082Z,9.90
2024-04-01T06:20:29.632Z,8.80
2024-04-01T06:23:32.970Z,10.50
2024-04-01T06:26:37.887Z,10.40
2024-04-01T06:29:28.866Z,11.40
2024-04-01T06:32:34.966Z,12.40
2024-04-01T06:35:35.334Z,9.00
2024-04-01T06:38:46.177Z,12.10
2024-04-01T06:41:44.911Z,9.70
2024-04-01T06:44:50.775Z,10.40
2024-04-01T06:47:37.047Z,9.60
2024-04-01T06:50:29.384Z,10.50
2024-04-01T06:53:19.984Z,10.00
2024-04-01T06:56:08.726Z,8.70
2024-04-01T06:59:21.159Z,11.00
2024-04-01T07:02:26.964Z,11.00
2024-04-01T07:05:09.767Z,9.40
2024-04-01T07:08:24.255Z,9.70
2024-04-01T07:11:09.847Z,10.80
2024-04-01T07:14:30.395Z,14.30
2024-04-01T07:17:33.563Z,9.40
2024-04-01T07:20:19.527Z,8.50
2024-04-01T07:23:13.533Z,9.00
2024-04-01T07:25:59.630Z,10.20
2024-04-01T07:28:56.102Z,7.20
2024-04-01T07:31:44.042Z,9.00
2024-04-01T07:34:27.375Z,8.40
2024-04-01T07:37:39.001Z,8.80
2024-04-01T07:40:53.659Z,8.80
2024-04-01T07:43:51.149Z,7.40
2024-04-01T07:47:24.531Z,9.60
2024-04-01T07:50:14.196Z,10.30
2024-04-01T07:53:35.049Z,7.60
2024-04-01T07:56:42.409Z,9.00
2024-04-01T07:59:46.844Z,9.90
2024-04-01T08:02:48.788Z,7.90
2024-04-01T08:05:48.904Z,10.50
2024-04-01T08:09:02.598Z,7.90
2024-04-01T08:12:19.746Z,7.80
2024-04-01T08:15:08.777Z,9.40
2024-04-01T08:18:35.349Z,7.60
2024-04-01T08:22:07.135Z,8.50
2024-04-01T08:25:20.504Z,8.60
2024-04-01T08:28:52.705Z,8.70
2024-04-01T08:31:59.618Z,8.30
2024-04-01T08:35:12.232Z,7.40
2024-04-01T08:38:35.735Z,9.70
2024-04-01T08:41:49.898Z,7.20
2024-04-01T08:44:37.401Z,7.70
2024-04-01T08:47:32.972Z,8.20
2024-04-01T08:53:28.706Z,8.50
2024-04-01T08:56:34.564Z,6.80
2024-04-01T08:59:22.097Z,8.50
2024-04-01T09:02:17.429Z,7.20
2024-04-01T09:05:23.993Z,7.20
2024-04-01T09:08:06.927Z,6.40
2024-04-01T09:10:54.220Z,7.90
2024-04-01T09:13:51.583Z,10.20
2024-04-01T09:16:49.596Z,8.30
2024-04-01T09:19:33.066Z,7.80
2024-04-01T09:22:38.693Z,8.20
2024-04-01T09:25:30.671Z,7.20
2024-04-01T09:28:13.453Z,7.70
2024-04-01T09:31:16.703Z,9.10
2024-04-01T09:34:12.190Z,8.50
2024-04-01T09:36:55.792Z,8.80
2024-04-01T09:40:02.184Z,7.40
2024-04-01T09:42:49.884Z,7.30
2024-04-01T09:45:50.252Z,6.10
2024-04-01T09:48:37.384Z,8.30
2024-04-01T09:51:24.152Z,7.50
2024-04-01T09:54:07.112Z,6.90
2024-04-01T09:57:32.215Z,8.90
2024-04-01T10:00:20.594Z,8.40
2024-04-01T10:03:45.777Z,7.20
2024-04-01T10:06:57.982Z,7.70
2024-04-01T10:09:43.808Z,6.80
2024-04-01T10:13:09.403Z,10.30
2024-04-01T10:16:13.344Z,8.10
2024-04-01T10:19:29.774Z,7.20
2024-04-01T10:22:18.781Z,7.40
2024-04-01T10:25:18.799Z,7.00
2024-04-01T10:28:31.060Z,6.40
2024-04-01T10:31:45.032Z,6.10
2024-04-01T10:34:36.958Z,6.60
2024-04-01T10:38:08.494Z,6.80
2024-04-01T10:41:42.970Z,7.60
2024-04-01T10:44:44.414Z,6.80
2024-04-01T10:47:59.356Z,7.20
2024-04-01T10:51:29.791Z,6.40
2024-04-01T10:54:20.068Z,7.20
2024-04-01T10:57:12.233Z,7.60
2024-04-01T11:00:40.300Z,6.90
2024-04-01T11:03:50.568Z,5.90
2024-04-01T11:07:27.272Z,6.30
2024-04-01T11:10:39.593Z,6.20
2024-04-01T11:13:24.637Z,7.90
2024-04-01T11:16:10.733Z,6.60
2024-04-01T11:19:43.856Z,7.60
2024-04-01T11:26:03.736Z,6.30
2024-04-01T11:28:52.722Z,7.00
2024-04-01T11:32:01.370Z,7.80
2024-04-01T11:35:02.528Z,7.90
2024-04-01T11:38:15.319Z,7.30
2024-04-01T11:43:53.848Z,7.90
2024-04-01T11:46:59.107Z,6.00
2024-04-01T11:49:42.891Z,6.90
2024-04-01T11:52:29.091Z,6.60
2024-04-01T11:55:53.495Z,8.70
2024-04-01T11:58:36.451Z,5.80
2024-04-01T12:01:21.755Z,6.60
2024-04-01T12:04:20.212Z,8.90
2024-04-01T12:07:08.358Z,6.70
2024-04-01T12:09:55.079Z,6.50
2024-04-01T12:12:38.906Z,5.80
2024-04-01T12:15:23.229Z,6.60
2024-04-01T12:18:12.048Z,6.10
2024-04-01T12:21:00.726Z,6.90
2024-04-01T12:23:44.416Z,6.80
2024-04-01T12:26:37.881Z,5.70
2024-04-01T12:29:22.983Z,7.50
2024-04-01T12:32:09.800Z,6.40
2024-04-01T12:34:56.134Z,6.60
2024-04-01T12:37:44.830Z,8.00
2024-04-01T12:40:28.669Z,7.70
2024-04-01T12:43:32.462Z,7.50
2024-04-01T12:46:15.802Z,7.30
2024-04-01T12:48:58.775Z,7.00
2024-04-01T12:51:44.251Z,7.50
2024-04-01T12:54:52.548Z,7.80
2024-04-01T12:57:55.924Z,7.40
2024-04-01T13:00:43.148Z,7.60
2024-04-01T13:03:42.664Z,7.40
2024-04-01T13:06:43.226Z,7.10
2024-04-01T13:09:38.849Z,8.10
2024-04-01T13:12:42.455Z,8.50
2024-04-01T13:15:51.524Z,8.30
2024-04-01T13:18:54.280Z,7.80
2024-04-01T13:21:46.906Z,8.70
2024-04-01T13:24:32.589Z,8.60
2024-04-01T13:27:36.938Z,8.40
2024-04-01T13:30:57.050Z,9.30
2024-04-01T13:34:10.204Z,7.60
2024-04-01T13:37:20.768Z,7.70
2024-04-01T13:40:30.361Z,8.50
2024-04-01T13:43:16.117Z,8.00
2024-04-01T13:46:17.246Z,8.60
2024-04-01T13:49:31.488Z,8.50
2024-04-01T13:52:29.850Z,8.10
2024-04-01T13:55:20.343Z,8.30
2024-04-01T13:58:25.003Z,9.20
2024-04-01T14:01:21.097Z,10.10
2024-04-01T14:04:28.767Z,9.30
2024-04-01T14:07:20.533Z,10.20
2024-04-01T14:10:24.926Z,9.20
2024-04-01T14:13:35.542Z,8.20
2024-04-01T14:16:35.627Z,9.20
2024-04-01T14:19:35.166Z,9.70
2024-04-01T14:22:18.521Z,10.60
2024-04-01T14:25:01.763Z,9.50
2024-04-01T14:27:45.137Z,9.00
2024-04-01T14:30:27.972Z,9.00
2024-04-01T14:33:17.156Z,9.50
2024-04-01T14:36:00.116Z,9.00
2024-04-01T14:38:45.917Z,7.60
2024-04-01T14:41:31.698Z,7.60
2024-04-01T14:44:24.880Z,9.60
2024-04-01T14:47:07.632Z,7.80
2024-04-01T14:49:50.912Z,8.70
2024-04-01T14:52:37.543Z,8.50
2024-04-01T14:55:20.885Z,7.60
2024-04-01T14:58:04.455Z,7.40
2024-04-01T15:00:47.655Z,8.60
2024-04-01T15:03:31.264Z,8.00
2024-04-01T15:06:14.400Z,8.80
2024-04-01T15:08:57.653Z,7.70
2024-04-01T15:11:43.297Z,9.30
2024-04-01T15:14:26.391Z,9.20
2024-04-01T15:17:12.398Z,7.50
2024-04-01T15:19:58.826Z,9.00
2024-04-01T15:22:42.969Z,9.20
2024-04-01T15:25:27.519Z,8.80
2024-04-01T15:28:11.661Z,8.20
2024-04-01T15:30:54.600Z,8.00
2024-04-01T15:33:38.335Z,8.70
2024-04-01T15:36:21.902Z,8.00
2024-04-01T15:39:16.166Z,8.20
2024-04-01T15:42:12.056Z,7.70
2024-04-01T15:44:55.250Z,7.90
2024-04-01T15:47:39.103Z,7.50
2024-04-01T15:50:32.094Z,7.50
2024-04-01T15:53:32.014Z,7.10
2024-04-01T15:56:50.969Z,7.70
2024-04-01T15:59:43.093Z,10.70
2024-04-01T16:02:27.198Z,10.10
2024-04-01T16:05:19.040Z,10.60
2024-04-01T16:08:17.957Z,10.50
2024-04-01T16:11:01.754Z,10.00
2024-04-01T16:13:54.936Z,8.70
2024-04-01T16:16:49.380Z,8.40
2024-04-01T16:19:36.510Z,10.30
2024-04-01T16:22:21.485Z,9.80
2024-04-01T16:25:05.962Z,10.70
2024-04-01T16:28:01.241Z,12.70
2024-04-01T16:30:54.007Z,10.50
2024-04-01T16:33:57.423Z,10.00
2024-04-01T16:36:41.183Z,11.40
2024-04-01T16:39:45.242Z,11.90
2024-04-01T16:42:32.717Z,9.70
2024-04-01T16:45:16.006Z,11.90
2024-04-01T16:48:00.710Z,9.20
2024-04-01T16:50:49.005Z,12.10
2024-04-01T16:53:36.540Z,10.40
2024-04-01T16:56:20.389Z,10.80
2024-04-01T16:59:13.947Z,13.00
2024-04-01T17:01:57.301Z,11.90
2024-04-01T17:04:45.205Z,10.70
2024-04-01T17:07:51.242Z,10.40
2024-04-01T17:10:46.340Z,10.30
2024-04-01T17:13:30.906Z,11.00
2024-04-01T17:16:18.724Z,9.10
2024-04-01T17:19:04.741Z,18.50
2024-04-01T17:21:47.912Z,134.50
2024-04-01T17:24:33.035Z,106.10
2024-04-01T17:27:15.973Z,52.10
2024-04-01T17:30:12.806Z,7.70
2024-04-01T17:32:56.581Z,3.80
2024-04-01T17:35:40.181Z,4.30
2024-04-01T17:38:38.643Z,3.20
2024-04-01T17:41:25.011Z,2.90
2024-04-01T17:44:31.209Z,3.20
2024-04-01T17:47:34.574Z,7.80
2024-04-01T17:50:31.690Z,3.60
2024-04-01T17:53:27.231Z,2.90
2024-04-01T17:56:10.667Z,3.90
2024-04-01T17:58:58.931Z,2.90
2024-04-01T18:01:43.464Z,2.80
2024-04-01T18:04:32.346Z,2.70
2024-04-01T18:07:26.609Z,2.40
2024-04-01T18:10:42.116Z,2.90
2024-04-01T18:13:48.100Z,3.10
2024-04-01T18:16:34.018Z,2.50
2024-04-01T18:19:24.616Z,2.70
2024-04-01T18:22:15.751Z,2.90
2024-04-01T18:25:22.448Z,3.30
2024-04-01T18:28:20.170Z,3.00
2024-04-01T18:31:27.839Z,3.00
2024-04-01T18:34:24.830Z,2.70
2024-04-01T18:37:48.454Z,3.80
2024-04-01T18:40:44.626Z,2.70
2024-04-01T18:43:28.903Z,4.00
2024-04-01T18:46:35.250Z,4.80
2024-04-01T18:49:19.081Z,4.00
2024-04-01T18:52:16.515Z,5.30
2024-04-01T18:55:07.117Z,3.90
2024-04-01T18:58:16.075Z,3.70
2024-04-01T19:01:03.170Z,4.40
2024-04-01T19:03:46.221Z,4.10
2024-04-01T19:06:56.470Z,3.70
2024-04-01T19:09:58.528Z,4.50
2024-04-01T19:12:47.469Z,3.80
2024-04-01T19:15:36.670Z,3.00
2024-04-01T19:18:40.084Z,3.40
2024-04-01T19:21:46.346Z,3.20
2024-04-01T19:24:49.665Z,4.10
2024-04-01T19:28:02.953Z,3.50
2024-04-01T19:30:48.133Z,3.90
2024-04-01T19:33:31.232Z,4.50
2024-04-01T19:36:18.114Z,5.00
2024-04-01T19:39:13.480Z,4.20
2024-04-01T19:42:18.255Z,4.90
2024-04-01T19:45:21.271Z,4.30
2024-04-01T19:48:10.359Z,4.20
2024-04-01T19:51:28.956Z,4.50
2024-04-01T19:55:02.231Z,4.10
2024-04-01T19:57:45.515Z,4.50
2024-04-01T20:00:41.133Z,4.30
2024-04-01T20:04:04.835Z,3.80
2024-04-01T20:07:27.761Z,3.70
2024-04-01T20:11:01.546Z,4.50
2024-04-01T20:13:54.414Z,4.30
2024-04-01T20:19:37.897Z,4.00
2024-04-01T20:22:43.170Z,4.70
2024-04-01T20:25:49.462Z,4.70
2024-04-01T20:28:47.870Z,4.30
2024-04-01T20:31:51.545Z,5.60
2024-04-01T20:34:56.385Z,5.10
2024-04-01T20:37:58.643Z,4.20
2024-04-01T20:40:50.316Z,4.20
2024-04-01T20:43:46.811Z,3.60
2024-04-01T20:46:38.621Z,3.60
2024-04-01T20:49:29.433Z,3.90
2024-04-01T20:52:39.110Z,4.50
2024-04-01T20:55:40.170Z,3.50
2024-04-01T20:58:33.011Z,4.00
2024-04-01T21:01:21.394Z,3.90
2024-04-01T21:04:09.273Z,4.00
2024-04-01T21:06:54.029Z,3.80
2024-04-01T21:09:51.413Z,3.40
2024-04-01T21:12:41.424Z,3.60
2024-04-01T21:15:44.788Z,3.40
2024-04-01T21:18:31.130Z,3.50
2024-04-01T21:21:27.332Z,3.40
2024-04-01T21:24:33.341Z,3.00
2024-04-01T21:27:27.723Z,3.10
2024-04-01T21:30:26.312Z,4.10
2024-04-01T21:33:11.829Z,3.00
2024-04-01T21:35:59.092Z,2.30
2024-04-01T21:38:44.751Z,2.30
2024-04-01T21:41:58.143Z,2.10
2024-04-01T21:44:59.132Z,2.00
2024-04-01T21:47:52.168Z,1.70
2024-04-01T21:50:55.445Z,2.40
2024-04-01T21:53:38.506Z,1.90
2024-04-01T21:56:39.595Z,2.00
2024-04-01T21:59:55.115Z,1.30
2024-04-01T22:03:05.286Z,1.40
2024-04-01T22:05:54.482Z,1.90
2024-04-01T22:09:00.274Z,1.30
2024-04-01T22:11:52.414Z,1.00
2024-04-01T22:14:35.490Z,1.60
2024-04-01T22:17:18.783Z,1.40
2024-04-01T22:20:14.881Z,1.10
2024-04-01T22:23:18.136Z,1.10
2024-04-01T22:26:01.442Z,1.20
2024-04-01T22:29:16.552Z,0.90
2024-04-01T22:32:04.932Z,1.20
2024-04-01T22:34:55.459Z,1.30
2024-04-01T22:38:04.741Z,1.10
2024-04-01T22:41:08.131Z,1.20
2024-04-01T22:43:56.150Z,1.40
2024-04-01T22:46:42.090Z,0.80
2024-04-01T22:50:19.640Z,1.30
2024-04-01T22:53:28.633Z,1.00
2024-04-01T22:56:23.019Z,1.40
2024-04-01T22:59:15.235Z,1.30
2024-04-01T23:02:08.147Z,1.10
2024-04-01T23:08:00.061Z,1.20
2024-04-01T23:11:10.444Z,0.90
2024-04-01T23:14:27.415Z,1.30
2024-04-01T23:17:29.217Z,0.90
2024-04-01T23:20:52.858Z,1.00
2024-04-01T23:23:52.803Z,0.70
2024-04-01T23:26:44.080Z,1.10
2024-04-01T23:29:50.490Z,1.00
2024-04-01T23:33:03.703Z,1.20
2024-04-01T23:36:09.312Z,1.20
2024-04-01T23:38:56.068Z,1.20
2024-04-01T23:42:04.918Z,0.90
2024-04-01T23:45:00.232Z,0.60
2024-04-01T23:47:58.161Z,0.90
2024-04-01T23:51:20.701Z,0.60
2024-04-01T23:54:23.137Z,0.80
2024-04-01T23:57:12.062Z,0.60
